sensor_id;sensor_type;location;lat;lon;timestamp;P1;durP1;ratioP1;P2;durP2;ratioP2
4268;SDS011;2148;48.554;7.834;2022-12-10T00:00:48;25.20;;;17.27;;
4268;SDS011;2148;48.554;7.834;2022-12-10T00:03:14;21.37;;;17.63;;
4268;SDS011;2148;48.554;7.834;2022-12-10T00:05:39;22.37;;;17.20;;
4268;SDS011;2148;48.554;7.834;2022-12-10T00:08:04;25.03;;;19.13;;
4268;SDS011;2148;48.554;7.834;2022-12-10T00:10:29;25.40;;;17.90;;
4268;SDS011;2148;48.554;7.834;2022-12-10T00:12:55;23.87;;;18.07;;
4268;SDS011;2148;48.554;7.834;2022-12-10T00:15:20;27.30;;;18.33;;
4268;SDS011;2148;48.554;7.834;2022-12-10T00:17:45;22.77;;;17.47;;
4268;SDS011;2148;48.554;7.834;2022-12-10T00:20:10;22.83;;;17.70;;
4268;SDS011;2148;48.554;7.834;2022-12-10T00:22:36;21.43;;;17.10;;
4268;SDS011;2148;48.554;7.834;2022-12-10T00:25:01;23.00;;;16.80;;
4268;SDS011;2148;48.554;7.834;2022-12-10T00:27:26;23.13;;;17.67;;
4268;SDS011;2148;48.554;7.834;2022-12-10T00:29:51;23.17;;;16.10;;
4268;SDS011;2148;48.554;7.834;2022-12-10T00:32:17;22.10;;;17.57;;
4268;SDS011;2148;48.554;7.834;2022-12-10T00:34:42;24.20;;;18.13;;
4268;SDS011;2148;48.554;7.834;2022-12-10T00:37:07;23.23;;;17.37;;
4268;SDS011;2148;48.554;7.834;2022-12-10T00:39:32;23.77;;;17.30;;
4268;SDS011;2148;48.554;7.834;2022-12-10T00:41:58;21.77;;;17.47;;
4268;SDS011;2148;48.554;7.834;2022-12-10T00:44:23;19.93;;;16.33;;
4268;SDS011;2148;48.554;7.834;2022-12-10T00:46:48;22.27;;;16.70;;
4268;SDS011;2148;48.554;7.834;2022-12-10T00:49:14;21.43;;;15.87;;
4268;SDS011;2148;48.554;7.834;2022-12-10T00:51:39;20.60;;;15.50;;
4268;SDS011;2148;48.554;7.834;2022-12-10T00:54:04;21.27;;;16.30;;
4268;SDS011;2148;48.554;7.834;2022-12-10T00:56:31;21.60;;;16.80;;
4268;SDS011;2148;48.554;7.834;2022-12-10T00:58:57;23.97;;;17.10;;
4268;SDS011;2148;48.554;7.834;2022-12-10T01:04:15;22.10;;;16.97;;
4268;SDS011;2148;48.554;7.834;2022-12-10T01:09:12;21.47;;;17.53;;
4268;SDS011;2148;48.554;7.834;2022-12-10T01:11:39;23.97;;;16.47;;
4268;SDS011;2148;48.554;7.834;2022-12-10T01:14:06;24.37;;;16.47;;
4268;SDS011;2148;48.554;7.834;2022-12-10T01:16:33;24.13;;;17.20;;
4268;SDS011;2148;48.554;7.834;2022-12-10T01:18:59;23.57;;;16.17;;
4268;SDS011;2148;48.554;7.834;2022-12-10T01:21:25;22.77;;;17.67;;
4268;SDS011;2148;48.554;7.834;2022-12-10T01:23:52;23.70;;;18.30;;
4268;SDS011;2148;48.554;7.834;2022-12-10T01:26:19;26.47;;;18.90;;
4268;SDS011;2148;48.554;7.834;2022-12-10T01:28:46;23.03;;;15.90;;
4268;SDS011;2148;48.554;7.834;2022-12-10T01:31:13;21.03;;;16.30;;
4268;SDS011;2148;48.554;7.834;2022-12-10T01:33:40;22.30;;;16.53;;
4268;SDS011;2148;48.554;7.834;2022-12-10T01:36:10;22.67;;;17.60;;
4268;SDS011;2148;48.554;7.834;2022-12-10T01:38:36;22.83;;;16.57;;
4268;SDS011;2148;48.554;7.834;2022-12-10T01:41:02;21.37;;;16.90;;
4268;SDS011;2148;48.554;7.834;2022-12-10T01:43:29;22.50;;;14.90;;
4268;SDS011;2148;48.554;7.834;2022-12-10T01:46:33;23.63;;;16.10;;
4268;SDS011;2148;48.554;7.834;2022-12-10T01:49:12;21.77;;;16.23;;
4268;SDS011;2148;48.554;7.834;2022-12-10T01:51:41;22.10;;;15.60;;
4268;SDS011;2148;48.554;7.834;2022-12-10T01:54:11;21.30;;;16.40;;
4268;SDS011;2148;48.554;7.834;2022-12-10T01:56:40;23.03;;;17.90;;
4268;SDS011;2148;48.554;7.834;2022-12-10T01:59:08;21.43;;;16.73;;
4268;SDS011;2148;48.554;7.834;2022-12-10T02:01:52;19.30;;;15.10;;
4268;SDS011;2148;48.554;7.834;2022-12-10T02:04:39;21.57;;;14.80;;
4268;SDS011;2148;48.554;7.834;2022-12-10T02:13:05;21.67;;;16.00;;
4268;SDS011;2148;48.554;7.834;2022-12-10T02:15:40;19.80;;;15.63;;
4268;SDS011;2148;48.554;7.834;2022-12-10T02:18:14;22.80;;;15.60;;
4268;SDS011;2148;48.554;7.834;2022-12-10T02:20:56;22.40;;;16.90;;
4268;SDS011;2148;48.554;7.834;2022-12-10T02:23:26;22.67;;;16.77;;
4268;SDS011;2148;48.554;7.834;2022-12-10T02:26:01;23.07;;;16.40;;
4268;SDS011;2148;48.554;7.834;2022-12-10T02:31:00;22.57;;;16.57;;
4268;SDS011;2148;48.554;7.834;2022-12-10T02:33:27;20.13;;;15.90;;
4268;SDS011;2148;48.554;7.834;2022-12-10T02:35:52;21.03;;;16.07;;
4268;SDS011;2148;48.554;7.834;2022-12-10T02:38:29;20.50;;;16.13;;
4268;SDS011;2148;48.554;7.834;2022-12-10T02:40:57;22.57;;;15.97;;
4268;SDS011;2148;48.554;7.834;2022-12-10T02:43:24;22.53;;;15.27;;
4268;SDS011;2148;48.554;7.834;2022-12-10T02:45:51;22.10;;;15.93;;
4268;SDS011;2148;48.554;7.834;2022-12-10T02:48:17;21.13;;;15.23;;
4268;SDS011;2148;48.554;7.834;2022-12-10T02:50:43;21.67;;;15.80;;
4268;SDS011;2148;48.554;7.834;2022-12-10T02:53:08;21.20;;;15.50;;
4268;SDS011;2148;48.554;7.834;2022-12-10T02:55:40;19.17;;;15.67;;
4268;SDS011;2148;48.554;7.834;2022-12-10T02:58:15;17.80;;;14.13;;
4268;SDS011;2148;48.554;7.834;2022-12-10T03:00:48;19.97;;;15.27;;
4268;SDS011;2148;48.554;7.834;2022-12-10T03:06:18;19.70;;;15.50;;
4268;SDS011;2148;48.554;7.834;2022-12-10T03:08:50;21.50;;;17.07;;
4268;SDS011;2148;48.554;7.834;2022-12-10T03:11:18;19.37;;;15.87;;
4268;SDS011;2148;48.554;7.834;2022-12-10T03:16:20;21.23;;;16.80;;
4268;SDS011;2148;48.554;7.834;2022-12-10T03:18:47;22.87;;;15.93;;
4268;SDS011;2148;48.554;7.834;2022-12-10T03:21:16;23.60;;;17.07;;
4268;SDS011;2148;48.554;7.834;2022-12-10T03:23:42;20.50;;;16.20;;
4268;SDS011;2148;48.554;7.834;2022-12-10T03:26:08;22.50;;;16.23;;
4268;SDS011;2148;48.554;7.834;2022-12-10T03:28:36;21.33;;;16.30;;
4268;SDS011;2148;48.554;7.834;2022-12-10T03:31:04;20.67;;;16.10;;
4268;SDS011;2148;48.554;7.834;2022-12-10T03:33:31;22.40;;;15.57;;
4268;SDS011;2148;48.554;7.834;2022-12-10T03:35:57;21.83;;;16.83;;
4268;SDS011;2148;48.554;7.834;2022-12-10T03:38:23;21.43;;;16.93;;
4268;SDS011;2148;48.554;7.834;2022-12-10T03:40:48;24.60;;;17.37;;
4268;SDS011;2148;48.554;7.834;2022-12-10T03:43:13;23.87;;;16.90;;
4268;SDS011;2148;48.554;7.834;2022-12-10T03:45:39;22.23;;;16.23;;
4268;SDS011;2148;48.554;7.834;2022-12-10T03:48:05;20.80;;;15.73;;
4268;SDS011;2148;48.554;7.834;2022-12-10T03:50:30;21.47;;;16.20;;
4268;SDS011;2148;48.554;7.834;2022-12-10T03:52:55;19.87;;;16.03;;
4268;SDS011;2148;48.554;7.834;2022-12-10T03:55:21;22.77;;;17.10;;
4268;SDS011;2148;48.554;7.834;2022-12-10T03:57:46;23.00;;;16.83;;
4268;SDS011;2148;48.554;7.834;2022-12-10T04:00:11;22.43;;;16.70;;
4268;SDS011;2148;48.554;7.834;2022-12-10T04:02:37;23.37;;;16.20;;
4268;SDS011;2148;48.554;7.834;2022-12-10T04:05:02;24.63;;;17.03;;
4268;SDS011;2148;48.554;7.834;2022-12-10T04:07:29;21.80;;;16.30;;
4268;SDS011;2148;48.554;7.834;2022-12-10T04:09:54;22.27;;;16.90;;
4268;SDS011;2148;48.554;7.834;2022-12-10T04:12:19;21.53;;;16.20;;
4268;SDS011;2148;48.554;7.834;2022-12-10T04:14:45;21.77;;;16.70;;
4268;SDS011;2148;48.554;7.834;2022-12-10T04:17:31;20.83;;;16.53;;
4268;SDS011;2148;48.554;7.834;2022-12-10T04:19:57;22.77;;;16.63;;
4268;SDS011;2148;48.554;7.834;2022-12-10T04:22:22;22.23;;;16.93;;
4268;SDS011;2148;48.554;7.834;2022-12-10T04:25:07;24.27;;;17.17;;
4268;SDS011;2148;48.554;7.834;2022-12-10T04:27:52;22.77;;;16.33;;
4268;SDS011;2148;48.554;7.834;2022-12-10T04:30:17;26.17;;;18.80;;
4268;SDS011;2148;48.554;7.834;2022-12-10T04:32:42;21.67;;;15.87;;
4268;SDS011;2148;48.554;7.834;2022-12-10T04:35:08;23.73;;;17.27;;
4268;SDS011;2148;48.554;7.834;2022-12-10T04:37:34;25.30;;;17.83;;
4268;SDS011;2148;48.554;7.834;2022-12-10T04:39:59;21.47;;;16.23;;
4268;SDS011;2148;48.554;7.834;2022-12-10T04:42:24;22.93;;;16.93;;
4268;SDS011;2148;48.554;7.834;2022-12-10T04:44:50;23.57;;;17.17;;
4268;SDS011;2148;48.554;7.834;2022-12-10T04:47:15;22.87;;;16.57;;
4268;SDS011;2148;48.554;7.834;2022-12-10T04:49:41;23.87;;;17.07;;
4268;SDS011;2148;48.554;7.834;2022-12-10T04:52:07;23.20;;;18.33;;
4268;SDS011;2148;48.554;7.834;2022-12-10T04:54:33;23.23;;;18.20;;
4268;SDS011;2148;48.554;7.834;2022-12-10T04:56:58;22.40;;;16.00;;
4268;SDS011;2148;48.554;7.834;2022-12-10T04:59:23;24.30;;;17.27;;
4268;SDS011;2148;48.554;7.834;2022-12-10T05:01:49;29.37;;;19.33;;
4268;SDS011;2148;48.554;7.834;2022-12-10T05:04:15;26.57;;;18.67;;
4268;SDS011;2148;48.554;7.834;2022-12-10T05:06:41;24.87;;;17.23;;
4268;SDS011;2148;48.554;7.834;2022-12-10T05:09:07;22.70;;;16.70;;
4268;SDS011;2148;48.554;7.834;2022-12-10T05:11:33;23.00;;;17.77;;
4268;SDS011;2148;48.554;7.834;2022-12-10T05:13:59;31.37;;;17.00;;
4268;SDS011;2148;48.554;7.834;2022-12-10T05:16:25;21.60;;;15.90;;
4268;SDS011;2148;48.554;7.834;2022-12-10T05:18:52;29.83;;;17.47;;
4268;SDS011;2148;48.554;7.834;2022-12-10T05:21:18;22.07;;;17.60;;
4268;SDS011;2148;48.554;7.834;2022-12-10T05:23:46;25.73;;;16.17;;
4268;SDS011;2148;48.554;7.834;2022-12-10T05:26:13;22.13;;;15.80;;
4268;SDS011;2148;48.554;7.834;2022-12-10T05:28:40;24.33;;;17.67;;
4268;SDS011;2148;48.554;7.834;2022-12-10T05:31:13;22.13;;;16.97;;
4268;SDS011;2148;48.554;7.834;2022-12-10T05:33:39;25.23;;;18.27;;
4268;SDS011;2148;48.554;7.834;2022-12-10T05:36:04;22.87;;;16.20;;
4268;SDS011;2148;48.554;7.834;2022-12-10T05:38:30;22.17;;;16.77;;
4268;SDS011;2148;48.554;7.834;2022-12-10T05:41:04;20.93;;;15.97;;
4268;SDS011;2148;48.554;7.834;2022-12-10T05:43:30;24.47;;;18.57;;
4268;SDS011;2148;48.554;7.834;2022-12-10T05:45:59;24.83;;;17.83;;
4268;SDS011;2148;48.554;7.834;2022-12-10T05:48:28;28.63;;;19.27;;
4268;SDS011;2148;48.554;7.834;2022-12-10T05:50:54;24.90;;;18.63;;
4268;SDS011;2148;48.554;7.834;2022-12-10T05:53:19;25.70;;;18.70;;
4268;SDS011;2148;48.554;7.834;2022-12-10T05:55:44;26.60;;;19.00;;
4268;SDS011;2148;48.554;7.834;2022-12-10T05:58:10;24.93;;;17.53;;
4268;SDS011;2148;48.554;7.834;2022-12-10T06:00:38;27.40;;;18.90;;
4268;SDS011;2148;48.554;7.834;2022-12-10T06:03:04;26.63;;;19.30;;
4268;SDS011;2148;48.554;7.834;2022-12-10T06:05:29;24.30;;;17.60;;
4268;SDS011;2148;48.554;7.834;2022-12-10T06:07:54;25.00;;;17.47;;
4268;SDS011;2148;48.554;7.834;2022-12-10T06:10:20;23.07;;;16.67;;
4268;SDS011;2148;48.554;7.834;2022-12-10T06:12:45;25.73;;;18.73;;
4268;SDS011;2148;48.554;7.834;2022-12-10T06:15:10;24.47;;;18.17;;
4268;SDS011;2148;48.554;7.834;2022-12-10T06:17:35;23.03;;;17.67;;
4268;SDS011;2148;48.554;7.834;2022-12-10T06:20:01;26.83;;;19.03;;
4268;SDS011;2148;48.554;7.834;2022-12-10T06:22:26;25.50;;;17.33;;
4268;SDS011;2148;48.554;7.834;2022-12-10T06:24:51;25.97;;;18.47;;
4268;SDS011;2148;48.554;7.834;2022-12-10T06:27:16;27.73;;;19.07;;
4268;SDS011;2148;48.554;7.834;2022-12-10T06:29:42;26.63;;;20.60;;
4268;SDS011;2148;48.554;7.834;2022-12-10T06:32:07;26.77;;;18.07;;
4268;SDS011;2148;48.554;7.834;2022-12-10T06:34:32;23.23;;;17.17;;
4268;SDS011;2148;48.554;7.834;2022-12-10T06:36:58;24.17;;;18.30;;
4268;SDS011;2148;48.554;7.834;2022-12-10T06:39:23;25.23;;;17.97;;
4268;SDS011;2148;48.554;7.834;2022-12-10T06:41:48;25.37;;;18.23;;
4268;SDS011;2148;48.554;7.834;2022-12-10T06:44:13;29.50;;;20.47;;
4268;SDS011;2148;48.554;7.834;2022-12-10T06:46:42;27.87;;;19.03;;
4268;SDS011;2148;48.554;7.834;2022-12-10T06:49:07;25.67;;;18.73;;
4268;SDS011;2148;48.554;7.834;2022-12-10T06:51:33;28.63;;;19.73;;
4268;SDS011;2148;48.554;7.834;2022-12-10T06:53:59;28.40;;;18.77;;
4268;SDS011;2148;48.554;7.834;2022-12-10T06:56:24;28.37;;;20.43;;
4268;SDS011;2148;48.554;7.834;2022-12-10T06:58:49;27.60;;;18.77;;
4268;SDS011;2148;48.554;7.834;2022-12-10T07:03:41;28.70;;;19.40;;
4268;SDS011;2148;48.554;7.834;2022-12-10T07:06:07;28.03;;;19.43;;
4268;SDS011;2148;48.554;7.834;2022-12-10T07:08:33;27.13;;;19.00;;
4268;SDS011;2148;48.554;7.834;2022-12-10T07:10:58;28.97;;;19.80;;
4268;SDS011;2148;48.554;7.834;2022-12-10T07:13:24;34.67;;;20.67;;
4268;SDS011;2148;48.554;7.834;2022-12-10T07:15:49;27.57;;;18.43;;
4268;SDS011;2148;48.554;7.834;2022-12-10T07:18:15;26.47;;;19.97;;
4268;SDS011;2148;48.554;7.834;2022-12-10T07:20:40;26.03;;;19.23;;
4268;SDS011;2148;48.554;7.834;2022-12-10T07:23:05;29.47;;;20.50;;
4268;SDS011;2148;48.554;7.834;2022-12-10T07:25:31;27.33;;;20.30;;
4268;SDS011;2148;48.554;7.834;2022-12-10T07:27:57;26.87;;;17.50;;
4268;SDS011;2148;48.554;7.834;2022-12-10T07:30:22;26.83;;;20.17;;
4268;SDS011;2148;48.554;7.834;2022-12-10T07:32:47;26.10;;;18.67;;
4268;SDS011;2148;48.554;7.834;2022-12-10T07:35:13;24.20;;;17.50;;
4268;SDS011;2148;48.554;7.834;2022-12-10T07:37:38;25.30;;;19.20;;
4268;SDS011;2148;48.554;7.834;2022-12-10T07:40:03;24.53;;;19.33;;
4268;SDS011;2148;48.554;7.834;2022-12-10T07:42:29;26.33;;;19.60;;
4268;SDS011;2148;48.554;7.834;2022-12-10T07:44:54;26.07;;;19.60;;
4268;SDS011;2148;48.554;7.834;2022-12-10T07:47:20;30.83;;;22.93;;
4268;SDS011;2148;48.554;7.834;2022-12-10T07:49:45;27.53;;;19.90;;
4268;SDS011;2148;48.554;7.834;2022-12-10T07:52:10;27.03;;;18.90;;
4268;SDS011;2148;48.554;7.834;2022-12-10T07:54:36;28.63;;;20.23;;
4268;SDS011;2148;48.554;7.834;2022-12-10T07:57:01;29.70;;;21.77;;
4268;SDS011;2148;48.554;7.834;2022-12-10T07:59:26;29.07;;;21.23;;
4268;SDS011;2148;48.554;7.834;2022-12-10T08:01:52;25.87;;;18.00;;
4268;SDS011;2148;48.554;7.834;2022-12-10T08:04:17;27.80;;;19.23;;
4268;SDS011;2148;48.554;7.834;2022-12-10T08:06:43;32.30;;;20.17;;
4268;SDS011;2148;48.554;7.834;2022-12-10T08:09:08;28.07;;;19.73;;
4268;SDS011;2148;48.554;7.834;2022-12-10T08:11:34;27.00;;;17.90;;
4268;SDS011;2148;48.554;7.834;2022-12-10T08:14:00;27.90;;;19.60;;
4268;SDS011;2148;48.554;7.834;2022-12-10T08:16:26;26.50;;;18.10;;
4268;SDS011;2148;48.554;7.834;2022-12-10T08:18:53;25.40;;;19.10;;
4268;SDS011;2148;48.554;7.834;2022-12-10T08:21:20;28.47;;;20.30;;
4268;SDS011;2148;48.554;7.834;2022-12-10T08:23:47;28.67;;;19.80;;
4268;SDS011;2148;48.554;7.834;2022-12-10T08:26:14;24.17;;;17.53;;
4268;SDS011;2148;48.554;7.834;2022-12-10T08:28:41;26.33;;;18.40;;
4268;SDS011;2148;48.554;7.834;2022-12-10T08:31:07;25.30;;;18.70;;
4268;SDS011;2148;48.554;7.834;2022-12-10T08:33:34;26.27;;;19.70;;
4268;SDS011;2148;48.554;7.834;2022-12-10T08:35:59;28.10;;;18.60;;
4268;SDS011;2148;48.554;7.834;2022-12-10T08:38:25;25.47;;;17.97;;
4268;SDS011;2148;48.554;7.834;2022-12-10T08:40:51;28.87;;;21.37;;
4268;SDS011;2148;48.554;7.834;2022-12-10T08:43:16;33.07;;;22.63;;
4268;SDS011;2148;48.554;7.834;2022-12-10T08:45:41;29.43;;;19.87;;
4268;SDS011;2148;48.554;7.834;2022-12-10T08:48:06;29.53;;;20.63;;
4268;SDS011;2148;48.554;7.834;2022-12-10T08:50:32;26.20;;;18.40;;
4268;SDS011;2148;48.554;7.834;2022-12-10T08:52:57;24.23;;;17.97;;
4268;SDS011;2148;48.554;7.834;2022-12-10T08:55:22;25.57;;;18.73;;
4268;SDS011;2148;48.554;7.834;2022-12-10T08:57:47;24.97;;;18.40;;
4268;SDS011;2148;48.554;7.834;2022-12-10T09:00:13;26.30;;;19.33;;
4268;SDS011;2148;48.554;7.834;2022-12-10T09:02:39;26.63;;;18.80;;
4268;SDS011;2148;48.554;7.834;2022-12-10T09:05:05;25.80;;;19.50;;
4268;SDS011;2148;48.554;7.834;2022-12-10T09:07:30;24.23;;;19.57;;
4268;SDS011;2148;48.554;7.834;2022-12-10T09:09:56;22.30;;;16.87;;
4268;SDS011;2148;48.554;7.834;2022-12-10T09:12:21;25.77;;;19.57;;
4268;SDS011;2148;48.554;7.834;2022-12-10T09:14:46;24.53;;;17.70;;
4268;SDS011;2148;48.554;7.834;2022-12-10T09:17:11;26.67;;;19.03;;
4268;SDS011;2148;48.554;7.834;2022-12-10T09:19:37;24.87;;;18.27;;
4268;SDS011;2148;48.554;7.834;2022-12-10T09:22:02;23.50;;;17.10;;
4268;SDS011;2148;48.554;7.834;2022-12-10T09:24:28;25.20;;;17.70;;
4268;SDS011;2148;48.554;7.834;2022-12-10T09:26:53;24.47;;;17.40;;
4268;SDS011;2148;48.554;7.834;2022-12-10T09:29:18;27.53;;;19.87;;
4268;SDS011;2148;48.554;7.834;2022-12-10T09:31:43;26.17;;;19.07;;
4268;SDS011;2148;48.554;7.834;2022-12-10T09:34:09;26.43;;;19.27;;
4268;SDS011;2148;48.554;7.834;2022-12-10T09:36:34;26.97;;;19.63;;
4268;SDS011;2148;48.554;7.834;2022-12-10T09:38:59;25.50;;;18.10;;
4268;SDS011;2148;48.554;7.834;2022-12-10T09:44:01;25.73;;;18.70;;
4268;SDS011;2148;48.554;7.834;2022-12-10T09:46:42;22.97;;;18.73;;
4268;SDS011;2148;48.554;7.834;2022-12-10T09:51:53;22.87;;;16.43;;
4268;SDS011;2148;48.554;7.834;2022-12-10T09:54:24;25.00;;;17.73;;
4268;SDS011;2148;48.554;7.834;2022-12-10T09:56:53;23.77;;;18.90;;
4268;SDS011;2148;48.554;7.834;2022-12-10T09:59:21;24.80;;;17.60;;
4268;SDS011;2148;48.554;7.834;2022-12-10T10:01:49;24.77;;;19.03;;
4268;SDS011;2148;48.554;7.834;2022-12-10T10:04:23;25.83;;;18.67;;
4268;SDS011;2148;48.554;7.834;2022-12-10T10:06:48;25.97;;;18.27;;
4268;SDS011;2148;48.554;7.834;2022-12-10T10:09:13;27.37;;;19.90;;
4268;SDS011;2148;48.554;7.834;2022-12-10T10:11:39;24.23;;;17.07;;
4268;SDS011;2148;48.554;7.834;2022-12-10T10:14:12;23.80;;;17.93;;
4268;SDS011;2148;48.554;7.834;2022-12-10T10:16:44;25.30;;;18.10;;
4268;SDS011;2148;48.554;7.834;2022-12-10T10:19:14;26.87;;;18.37;;
4268;SDS011;2148;48.554;7.834;2022-12-10T10:21:42;25.70;;;19.83;;
4268;SDS011;2148;48.554;7.834;2022-12-10T10:24:12;28.00;;;21.67;;
4268;SDS011;2148;48.554;7.834;2022-12-10T10:26:39;38.87;;;27.20;;
4268;SDS011;2148;48.554;7.834;2022-12-10T10:29:05;34.43;;;25.53;;
4268;SDS011;2148;48.554;7.834;2022-12-10T10:31:33;40.67;;;28.83;;
4268;SDS011;2148;48.554;7.834;2022-12-10T10:34:01;31.27;;;22.93;;
4268;SDS011;2148;48.554;7.834;2022-12-10T10:36:32;31.27;;;22.43;;
4268;SDS011;2148;48.554;7.834;2022-12-10T10:41:37;27.10;;;19.73;;
4268;SDS011;2148;48.554;7.834;2022-12-10T10:44:04;26.93;;;21.27;;
4268;SDS011;2148;48.554;7.834;2022-12-10T10:46:30;26.07;;;20.13;;
4268;SDS011;2148;48.554;7.834;2022-12-10T10:51:53;41.27;;;29.17;;
4268;SDS011;2148;48.554;7.834;2022-12-10T10:57:04;38.87;;;28.33;;
4268;SDS011;2148;48.554;7.834;2022-12-10T10:59:40;36.87;;;25.87;;
4268;SDS011;2148;48.554;7.834;2022-12-10T11:05:01;37.27;;;26.10;;
4268;SDS011;2148;48.554;7.834;2022-12-10T11:07:34;33.17;;;24.30;;
4268;SDS011;2148;48.554;7.834;2022-12-10T11:10:02;32.23;;;21.77;;
4268;SDS011;2148;48.554;7.834;2022-12-10T11:12:33;30.23;;;20.27;;
4268;SDS011;2148;48.554;7.834;2022-12-10T11:15:00;25.63;;;19.33;;
4268;SDS011;2148;48.554;7.834;2022-12-10T11:17:26;28.50;;;21.23;;
4268;SDS011;2148;48.554;7.834;2022-12-10T11:20:13;27.60;;;20.30;;
4268;SDS011;2148;48.554;7.834;2022-12-10T11:22:52;31.37;;;25.00;;
4268;SDS011;2148;48.554;7.834;2022-12-10T11:25:21;23.37;;;18.57;;
4268;SDS011;2148;48.554;7.834;2022-12-10T11:30:57;22.30;;;17.07;;
4268;SDS011;2148;48.554;7.834;2022-12-10T11:39:03;22.33;;;17.27;;
4268;SDS011;2148;48.554;7.834;2022-12-10T11:41:41;25.83;;;19.07;;
4268;SDS011;2148;48.554;7.834;2022-12-10T11:52:23;21.67;;;17.23;;
4268;SDS011;2148;48.554;7.834;2022-12-10T11:57:58;21.67;;;16.23;;
4268;SDS011;2148;48.554;7.834;2022-12-10T12:00:29;17.47;;;14.87;;
4268;SDS011;2148;48.554;7.834;2022-12-10T12:08:20;21.30;;;16.83;;
4268;SDS011;2148;48.554;7.834;2022-12-10T12:11:03;21.60;;;16.47;;
4268;SDS011;2148;48.554;7.834;2022-12-10T12:14:00;21.00;;;15.77;;
4268;SDS011;2148;48.554;7.834;2022-12-10T12:16:48;23.23;;;17.50;;
4268;SDS011;2148;48.554;7.834;2022-12-10T12:22:00;27.27;;;19.13;;
4268;SDS011;2148;48.554;7.834;2022-12-10T12:24:39;26.87;;;19.77;;
4268;SDS011;2148;48.554;7.834;2022-12-10T12:29:46;22.27;;;16.80;;
4268;SDS011;2148;48.554;7.834;2022-12-10T12:32:21;21.30;;;15.90;;
4268;SDS011;2148;48.554;7.834;2022-12-10T12:35:03;19.80;;;16.27;;
4268;SDS011;2148;48.554;7.834;2022-12-10T12:37:46;19.83;;;14.43;;
4268;SDS011;2148;48.554;7.834;2022-12-10T12:42:59;22.17;;;16.40;;
4268;SDS011;2148;48.554;7.834;2022-12-10T12:45:38;20.80;;;15.80;;
4268;SDS011;2148;48.554;7.834;2022-12-10T12:50:44;18.80;;;14.87;;
4268;SDS011;2148;48.554;7.834;2022-12-10T12:53:15;19.07;;;13.87;;
4268;SDS011;2148;48.554;7.834;2022-12-10T12:55:51;19.53;;;15.03;;
4268;SDS011;2148;48.554;7.834;2022-12-10T13:00:57;20.50;;;15.80;;
4268;SDS011;2148;48.554;7.834;2022-12-10T13:16:45;19.67;;;15.97;;
4268;SDS011;2148;48.554;7.834;2022-12-10T13:24:18;20.97;;;15.30;;
4268;SDS011;2148;48.554;7.834;2022-12-10T13:37:55;23.73;;;17.50;;
4268;SDS011;2148;48.554;7.834;2022-12-10T13:40:40;23.63;;;17.93;;
4268;SDS011;2148;48.554;7.834;2022-12-10T13:47:21;17.33;;;14.10;;
4268;SDS011;2148;48.554;7.834;2022-12-10T13:49:25;19.87;;;15.27;;
4268;SDS011;2148;48.554;7.834;2022-12-10T13:59:47;20.97;;;15.67;;
4268;SDS011;2148;48.554;7.834;2022-12-10T14:02:23;21.50;;;16.90;;
4268;SDS011;2148;48.554;7.834;2022-12-10T14:07:29;23.30;;;15.97;;
4268;SDS011;2148;48.554;7.834;2022-12-10T14:09:57;22.67;;;18.73;;
4268;SDS011;2148;48.554;7.834;2022-12-10T14:12:25;22.90;;;17.97;;
4268;SDS011;2148;48.554;7.834;2022-12-10T14:14:55;23.50;;;17.90;;
4268;SDS011;2148;48.554;7.834;2022-12-10T14:17:24;23.13;;;16.90;;
4268;SDS011;2148;48.554;7.834;2022-12-10T14:19:54;19.00;;;14.97;;
4268;SDS011;2148;48.554;7.834;2022-12-10T14:22:29;20.83;;;15.33;;
4268;SDS011;2148;48.554;7.834;2022-12-10T14:24:58;22.13;;;15.93;;
4268;SDS011;2148;48.554;7.834;2022-12-10T14:27:25;22.03;;;16.50;;
4268;SDS011;2148;48.554;7.834;2022-12-10T14:29:52;23.00;;;16.60;;
4268;SDS011;2148;48.554;7.834;2022-12-10T14:32:27;22.63;;;17.63;;
4268;SDS011;2148;48.554;7.834;2022-12-10T14:34:56;24.67;;;17.47;;
4268;SDS011;2148;48.554;7.834;2022-12-10T14:37:24;21.30;;;17.47;;
4268;SDS011;2148;48.554;7.834;2022-12-10T14:39:52;23.03;;;17.20;;
4268;SDS011;2148;48.554;7.834;2022-12-10T14:42:17;24.47;;;17.03;;
4268;SDS011;2148;48.554;7.834;2022-12-10T14:44:43;23.13;;;16.97;;
4268;SDS011;2148;48.554;7.834;2022-12-10T14:47:14;23.43;;;17.60;;
4268;SDS011;2148;48.554;7.834;2022-12-10T14:49:42;20.23;;;15.50;;
4268;SDS011;2148;48.554;7.834;2022-12-10T14:52:30;21.57;;;16.80;;
4268;SDS011;2148;48.554;7.834;2022-12-10T14:54:57;21.10;;;16.90;;
4268;SDS011;2148;48.554;7.834;2022-12-10T14:57:24;22.43;;;16.73;;
4268;SDS011;2148;48.554;7.834;2022-12-10T15:00:05;25.33;;;17.70;;
4268;SDS011;2148;48.554;7.834;2022-12-10T15:02:38;23.43;;;18.13;;
4268;SDS011;2148;48.554;7.834;2022-12-10T15:07:48;24.43;;;18.30;;
4268;SDS011;2148;48.554;7.834;2022-12-10T15:10:18;27.70;;;18.67;;
4268;SDS011;2148;48.554;7.834;2022-12-10T15:12:48;23.87;;;19.27;;
4268;SDS011;2148;48.554;7.834;2022-12-10T15:15:16;26.73;;;20.83;;
4268;SDS011;2148;48.554;7.834;2022-12-10T15:17:55;23.40;;;19.77;;
4268;SDS011;2148;48.554;7.834;2022-12-10T15:20:25;27.33;;;20.57;;
4268;SDS011;2148;48.554;7.834;2022-12-10T15:25:52;22.93;;;18.13;;
4268;SDS011;2148;48.554;7.834;2022-12-10T15:28:24;22.87;;;18.03;;
4268;SDS011;2148;48.554;7.834;2022-12-10T15:33:53;25.80;;;20.40;;
4268;SDS011;2148;48.554;7.834;2022-12-10T15:38:56;25.47;;;19.40;;
4268;SDS011;2148;48.554;7.834;2022-12-10T15:44:04;22.37;;;16.77;;
4268;SDS011;2148;48.554;7.834;2022-12-10T15:46:30;22.43;;;16.63;;
4268;SDS011;2148;48.554;7.834;2022-12-10T15:48:55;23.37;;;17.87;;
4268;SDS011;2148;48.554;7.834;2022-12-10T15:51:23;24.17;;;17.87;;
4268;SDS011;2148;48.554;7.834;2022-12-10T15:53:49;26.20;;;18.73;;
4268;SDS011;2148;48.554;7.834;2022-12-10T15:56:15;25.93;;;19.10;;
4268;SDS011;2148;48.554;7.834;2022-12-10T15:58:40;24.53;;;18.90;;
4268;SDS011;2148;48.554;7.834;2022-12-10T16:01:07;24.17;;;19.33;;
4268;SDS011;2148;48.554;7.834;2022-12-10T16:03:34;23.33;;;18.47;;
4268;SDS011;2148;48.554;7.834;2022-12-10T16:06:01;23.53;;;17.97;;
4268;SDS011;2148;48.554;7.834;2022-12-10T16:08:28;21.57;;;17.13;;
4268;SDS011;2148;48.554;7.834;2022-12-10T16:10:54;20.03;;;16.13;;
4268;SDS011;2148;48.554;7.834;2022-12-10T16:13:24;21.83;;;15.97;;
4268;SDS011;2148;48.554;7.834;2022-12-10T16:15:52;24.13;;;17.03;;
4268;SDS011;2148;48.554;7.834;2022-12-10T16:18:29;23.87;;;16.57;;
4268;SDS011;2148;48.554;7.834;2022-12-10T16:20:54;20.07;;;15.53;;
4268;SDS011;2148;48.554;7.834;2022-12-10T16:23:20;22.17;;;16.70;;
4268;SDS011;2148;48.554;7.834;2022-12-10T16:25:45;20.37;;;16.53;;
4268;SDS011;2148;48.554;7.834;2022-12-10T16:28:15;22.17;;;16.47;;
4268;SDS011;2148;48.554;7.834;2022-12-10T16:30:45;21.97;;;17.43;;
4268;SDS011;2148;48.554;7.834;2022-12-10T16:33:13;21.03;;;16.80;;
4268;SDS011;2148;48.554;7.834;2022-12-10T16:35:40;22.23;;;17.80;;
4268;SDS011;2148;48.554;7.834;2022-12-10T16:38:05;19.03;;;15.87;;
4268;SDS011;2148;48.554;7.834;2022-12-10T16:40:31;23.00;;;18.00;;
4268;SDS011;2148;48.554;7.834;2022-12-10T16:42:56;22.03;;;17.47;;
4268;SDS011;2148;48.554;7.834;2022-12-10T16:45:24;21.73;;;16.33;;
4268;SDS011;2148;48.554;7.834;2022-12-10T16:47:51;22.50;;;17.60;;
4268;SDS011;2148;48.554;7.834;2022-12-10T16:50:17;23.70;;;16.67;;
4268;SDS011;2148;48.554;7.834;2022-12-10T16:52:43;21.50;;;17.53;;
4268;SDS011;2148;48.554;7.834;2022-12-10T16:55:11;19.03;;;15.23;;
4268;SDS011;2148;48.554;7.834;2022-12-10T16:57:38;23.37;;;16.60;;
4268;SDS011;2148;48.554;7.834;2022-12-10T17:00:05;17.03;;;13.90;;
4268;SDS011;2148;48.554;7.834;2022-12-10T17:02:31;18.77;;;15.03;;
4268;SDS011;2148;48.554;7.834;2022-12-10T17:04:56;19.50;;;15.67;;
4268;SDS011;2148;48.554;7.834;2022-12-10T17:07:21;19.73;;;15.63;;